Time;durP1;ratioP1;P1;durP2;ratioP2;P2;SDS_P1;SDS_P2;PMS_P1;PMS_P2;Temp;Humidity;BMP_temperature;BMP_pressure;BME280_temperature;BME280_humidity;BME280_pressure;Samples;Min_cycle;Max_cycle;Signal;HPM_P1;HPM_P2
2022/12/27 00:01:14;;;;;;;2.05;1.95;;;;;;;;;;5008910;28;20474;-73
2022/12/27 00:03:40;;;;;;;0.13;0.13;;;;;;;;;;5009124;28;20028;-73
2022/12/27 00:06:10;;;;;;;0.17;0.17;;;;;;;;;;5008835;28;20076;-73
2022/12/27 00:08:36;;;;;;;0.10;0.10;;;;;;;;;;5010503;28;20029;-73
2022/12/27 00:11:08;;;;;;;0.38;0.38;;;;;;;;;;5010404;28;20133;-73
2022/12/27 00:13:34;;;;;;;0.15;0.15;;;;;;;;;;5010292;28;20026;-73
2022/12/27 00:16:03;;;;;;;1.67;1.35;;;;;;;;;;5010197;28;20095;-73
2022/12/27 00:18:29;;;;;;;0.13;0.13;;;;;;;;;;5013689;28;20489;-73
2022/12/27 00:21:01;;;;;;;1.17;1.17;;;;;;;;;;4979913;28;20056;-73
2022/12/27 00:23:29;;;;;;;0.10;0.10;;;;;;;;;;5013628;28;20026;-73
2022/12/27 00:26:01;;;;;;;0.20;0.20;;;;;;;;;;5013577;28;20083;-73
2022/12/27 00:28:28;;;;;;;0.10;0.10;;;;;;;;;;4996330;28;20030;-73
2022/12/27 00:30:54;;;;;;;0.10;0.10;;;;;;;;;;5013722;28;20038;-73
2022/12/27 00:33:20;;;;;;;0.20;0.20;;;;;;;;;;4996101;28;20037;-73
2022/12/27 00:35:45;;;;;;;0.10;0.10;;;;;;;;;;4996222;28;20036;-73
2022/12/27 00:38:11;;;;;;;0.20;0.20;;;;;;;;;;5013478;28;20034;-73
2022/12/27 00:40:38;;;;;;;0.10;0.10;;;;;;;;;;5013415;28;20041;-73
2022/12/27 00:43:03;;;;;;;2.10;1.52;;;;;;;;;;5013432;28;20022;-73
2022/12/27 00:45:29;;;;;;;0.73;0.73;;;;;;;;;;5013463;28;20040;-73
2022/12/27 00:47:54;;;;;;;1.25;1.05;;;;;;;;;;5013401;28;20026;-73
2022/12/27 00:50:20;;;;;;;0.13;0.13;;;;;;;;;;4996066;28;20030;-73
2022/12/27 00:52:45;;;;;;;0.95;0.93;;;;;;;;;;5013245;28;20024;-73
2022/12/27 00:55:11;;;;;;;0.85;0.82;;;;;;;;;;5011975;28;20044;-73
2022/12/27 00:57:36;;;;;;;0.50;0.50;;;;;;;;;;5013557;28;20125;-73
2022/12/27 01:00:02;;;;;;;1.75;0.77;;;;;;;;;;5013272;28;20377;-73
2022/12/27 01:02:28;;;;;;;0.85;0.55;;;;;;;;;;4995678;28;20109;-73
2022/12/27 01:04:53;;;;;;;0.63;0.63;;;;;;;;;;5013472;28;20448;-73
2022/12/27 01:07:19;;;;;;;0.50;0.50;;;;;;;;;;5013192;28;20057;-73
2022/12/27 01:09:44;;;;;;;0.82;0.80;;;;;;;;;;5015124;28;20508;-73
2022/12/27 01:12:10;;;;;;;0.10;0.10;;;;;;;;;;5017198;28;20034;-74
2022/12/27 01:14:35;;;;;;;0.10;0.10;;;;;;;;;;4999795;28;20503;-73
2022/12/27 01:17:01;;;;;;;0.40;0.40;;;;;;;;;;5017087;28;20034;-73
2022/12/27 01:19:26;;;;;;;0.20;0.20;;;;;;;;;;5017089;28;20025;-73
2022/12/27 01:21:51;;;;;;;0.55;0.55;;;;;;;;;;5016985;28;20038;-73
2022/12/27 01:24:17;;;;;;;0.68;0.68;;;;;;;;;;5016849;28;20146;-73
2022/12/27 01:26:42;;;;;;;0.20;0.20;;;;;;;;;;5017104;28;20464;-73
2022/12/27 01:29:10;;;;;;;0.20;0.20;;;;;;;;;;4999257;28;20026;-73
2022/12/27 01:31:35;;;;;;;0.10;0.10;;;;;;;;;;5016734;28;20096;-73
2022/12/27 01:34:01;;;;;;;0.10;0.10;;;;;;;;;;5016704;28;20473;-73
2022/12/27 01:36:27;;;;;;;1.85;1.60;;;;;;;;;;5017031;28;20058;-73
2022/12/27 01:38:52;;;;;;;0.25;0.25;;;;;;;;;;5015277;28;20118;-73
2022/12/27 01:44:25;;;;;;;0.10;0.10;;;;;;;;;;4999187;28;20034;-73
2022/12/27 01:46:51;;;;;;;0.25;0.25;;;;;;;;;;5016451;28;20544;-73
2022/12/27 01:49:16;;;;;;;0.10;0.10;;;;;;;;;;5016314;28;20113;-73
2022/12/27 01:51:42;;;;;;;0.10;0.10;;;;;;;;;;4998949;28;21074;-73
2022/12/27 01:54:07;;;;;;;0.10;0.10;;;;;;;;;;5016541;28;20113;-73
2022/12/27 01:56:33;;;;;;;0.30;0.30;;;;;;;;;;5016188;28;20111;-73
2022/12/27 01:59:00;;;;;;;0.10;0.10;;;;;;;;;;5016606;28;20092;-73
2022/12/27 02:01:27;;;;;;;0.22;0.22;;;;;;;;;;5016155;28;20074;-73
2022/12/27 02:03:54;;;;;;;0.10;0.10;;;;;;;;;;5016391;28;20062;-73
2022/12/27 02:06:20;;;;;;;0.10;0.10;;;;;;;;;;5016128;28;20040;-73
2022/12/27 02:09:09;;;;;;;0.10;0.10;;;;;;;;;;4998558;28;20037;-73
2022/12/27 02:11:51;;;;;;;0.15;0.15;;;;;;;;;;5008170;28;20132;-73
2022/12/27 02:14:22;;;;;;;0.20;0.20;;;;;;;;;;5015962;28;20493;-73
2022/12/27 02:16:48;;;;;;;0.10;0.10;;;;;;;;;;5015964;28;20030;-73
2022/12/27 02:19:36;;;;;;;0.20;0.20;;;;;;;;;;5016116;28;20026;-73
2022/12/27 02:22:08;;;;;;;1.48;0.50;;;;;;;;;;5007304;28;20054;-73
2022/12/27 02:24:48;;;;;;;0.10;0.10;;;;;;;;;;5015624;28;20034;-73
2022/12/27 02:27:17;;;;;;;0.20;0.20;;;;;;;;;;5015831;28;20366;-73
2022/12/27 02:29:42;;;;;;;0.10;0.10;;;;;;;;;;5015873;28;20033;-73
2022/12/27 02:32:10;;;;;;;0.10;0.10;;;;;;;;;;5015831;28;20531;-73
2022/12/27 02:34:36;;;;;;;0.10;0.10;;;;;;;;;;5015433;28;20022;-73
2022/12/27 02:37:03;;;;;;;0.63;0.63;;;;;;;;;;5015641;28;20469;-73
2022/12/27 02:39:32;;;;;;;1.42;1.10;;;;;;;;;;5015324;28;20028;-73
2022/12/27 02:53:04;;;;;;;0.10;0.10;;;;;;;;;;5015329;28;20053;-73
2022/12/27 02:58:49;;;;;;;0.80;0.80;;;;;;;;;;5009820;28;20061;-73
2022/12/27 03:04:40;;;;;;;0.75;0.75;;;;;;;;;;5015038;28;20030;-73
2022/12/27 03:07:06;;;;;;;3.63;2.53;;;;;;;;;;4997712;28;20037;-73
2022/12/27 03:18:14;;;;;;;0.52;0.52;;;;;;;;;;5014913;28;20034;-73
2022/12/27 03:26:12;;;;;;;0.25;0.25;;;;;;;;;;5014732;28;20042;-73
2022/12/27 03:34:38;;;;;;;0.98;0.28;;;;;;;;;;5010836;28;20429;-73
2022/12/27 03:40:01;;;;;;;0.20;0.20;;;;;;;;;;5014476;28;20431;-73
2022/12/27 03:45:13;;;;;;;0.10;0.10;;;;;;;;;;5014501;28;20495;-73
2022/12/27 03:47:46;;;;;;;1.10;1.00;;;;;;;;;;5014338;28;20025;-73
2022/12/27 03:50:25;;;;;;;0.10;0.10;;;;;;;;;;5014294;28;20063;-73
2022/12/27 03:52:54;;;;;;;0.67;0.67;;;;;;;;;;5014264;28;20030;-74
2022/12/27 03:55:20;;;;;;;0.10;0.10;;;;;;;;;;5013942;28;20442;-73
2022/12/27 03:57:45;;;;;;;0.20;0.20;;;;;;;;;;5048744;28;20049;-73
2022/12/27 04:00:11;;;;;;;3.78;2.83;;;;;;;;;;5054052;28;20040;-73
2022/12/27 04:02:41;;;;;;;0.10;0.10;;;;;;;;;;5048957;28;20510;-73
2022/12/27 04:05:07;;;;;;;0.13;0.13;;;;;;;;;;5032089;28;20033;-73
2022/12/27 04:07:33;;;;;;;0.47;0.47;;;;;;;;;;5049813;28;20051;-73
2022/12/27 04:34:45;;;;;;;0.10;0.10;;;;;;;;;;5049393;28;20055;-73
2022/12/27 04:37:12;;;;;;;0.10;0.10;;;;;;;;;;5049845;28;20112;-74
2022/12/27 04:39:37;;;;;;;0.22;0.22;;;;;;;;;;5049376;28;20029;-73
2022/12/27 04:56:01;;;;;;;0.35;0.35;;;;;;;;;;5049479;28;20131;-72
2022/12/27 04:58:27;;;;;;;0.10;0.10;;;;;;;;;;5049433;28;20516;-71
2022/12/27 05:03:38;;;;;;;0.10;0.10;;;;;;;;;;5033914;28;20514;-71
2022/12/27 05:06:03;;;;;;;0.10;0.10;;;;;;;;;;5049311;28;20025;-74
2022/12/27 05:13:59;;;;;;;0.10;0.10;;;;;;;;;;5049417;28;20040;-72
2022/12/27 05:16:33;;;;;;;0.30;0.30;;;;;;;;;;5049663;28;20188;-74
2022/12/27 05:18:59;;;;;;;0.30;0.30;;;;;;;;;;5049345;28;20036;-74
2022/12/27 05:21:24;;;;;;;0.10;0.10;;;;;;;;;;5048686;28;20037;-72
2022/12/27 05:26:34;;;;;;;0.10;0.10;;;;;;;;;;5048741;28;20427;-72
2022/12/27 05:29:00;;;;;;;0.10;0.10;;;;;;;;;;5031346;28;20020;-72
2022/12/27 05:31:26;;;;;;;0.90;0.70;;;;;;;;;;5031404;28;20033;-72
2022/12/27 05:33:52;;;;;;;0.10;0.10;;;;;;;;;;5049075;28;20108;-72
2022/12/27 05:36:18;;;;;;;0.10;0.10;;;;;;;;;;5048635;28;20121;-72
2022/12/27 05:38:44;;;;;;;0.10;0.10;;;;;;;;;;5048933;28;20051;-72
2022/12/27 05:41:10;;;;;;;0.10;0.10;;;;;;;;;;5048867;28;20547;-72
2022/12/27 05:43:36;;;;;;;0.10;0.10;;;;;;;;;;5048685;28;20013;-72
2022/12/27 05:46:09;;;;;;;1.65;1.65;;;;;;;;;;5048798;28;20029;-72
2022/12/27 05:48:35;;;;;;;0.55;0.55;;;;;;;;;;5048742;28;20021;-72
2022/12/27 05:51:11;;;;;;;0.28;0.28;;;;;;;;;;5048831;28;20500;-72
2022/12/27 05:53:36;;;;;;;1.73;1.17;;;;;;;;;;5048392;28;20024;-72
2022/12/27 05:56:02;;;;;;;0.10;0.10;;;;;;;;;;5049465;28;20196;-72
2022/12/27 05:58:28;;;;;;;0.47;0.47;;;;;;;;;;5034489;28;20032;-72
2022/12/27 06:00:53;;;;;;;0.10;0.10;;;;;;;;;;5052413;28;20021;-72
2022/12/27 06:03:19;;;;;;;0.10;0.10;;;;;;;;;;5034509;28;20039;-72
2022/12/27 06:05:44;;;;;;;0.10;0.10;;;;;;;;;;5051715;28;20121;-72
2022/12/27 06:08:10;;;;;;;0.10;0.10;;;;;;;;;;5051944;28;20021;-72
2022/12/27 06:10:36;;;;;;;0.10;0.10;;;;;;;;;;5051772;28;20039;-72
2022/12/27 06:13:01;;;;;;;0.13;0.13;;;;;;;;;;5052450;28;20029;-72
2022/12/27 06:15:27;;;;;;;0.10;0.10;;;;;;;;;;5051510;28;20040;-72
2022/12/27 06:17:52;;;;;;;0.10;0.10;;;;;;;;;;5051934;28;20032;-72
2022/12/27 06:20:18;;;;;;;0.10;0.10;;;;;;;;;;5033725;28;20112;-72
2022/12/27 06:22:44;;;;;;;0.40;0.40;;;;;;;;;;5051755;28;20503;-72
2022/12/27 06:25:09;;;;;;;0.10;0.10;;;;;;;;;;5051831;28;20267;-72
2022/12/27 06:27:35;;;;;;;0.10;0.10;;;;;;;;;;5051192;28;20021;-72
2022/12/27 06:30:00;;;;;;;0.17;0.17;;;;;;;;;;5033648;28;20392;-72
2022/12/27 06:32:26;;;;;;;0.10;0.10;;;;;;;;;;5051484;28;20036;-72
2022/12/27 06:34:51;;;;;;;0.20;0.20;;;;;;;;;;5033862;28;20045;-72
2022/12/27 06:37:17;;;;;;;0.20;0.20;;;;;;;;;;5033774;28;20160;-72
2022/12/27 06:39:43;;;;;;;0.10;0.10;;;;;;;;;;5051142;28;20025;-72
2022/12/27 06:42:08;;;;;;;0.80;0.20;;;;;;;;;;5050987;28;20033;-72
2022/12/27 06:44:34;;;;;;;0.10;0.10;;;;;;;;;;5051171;28;20025;-72
2022/12/27 06:46:59;;;;;;;0.10;0.10;;;;;;;;;;5051562;28;20029;-72
2022/12/27 06:49:25;;;;;;;0.10;0.10;;;;;;;;;;5050996;28;20429;-72
2022/12/27 06:51:50;;;;;;;0.10;0.10;;;;;;;;;;5051037;28;20083;-72
2022/12/27 06:54:16;;;;;;;0.10;0.10;;;;;;;;;;5051119;28;20825;-72
2022/12/27 06:56:41;;;;;;;0.10;0.10;;;;;;;;;;5050595;28;20053;-72
2022/12/27 06:59:07;;;;;;;1.00;1.00;;;;;;;;;;5050795;28;20101;-72
2022/12/27 07:01:32;;;;;;;0.10;0.10;;;;;;;;;;5050615;28;20052;-72
2022/12/27 07:03:59;;;;;;;0.10;0.10;;;;;;;;;;5033144;28;20100;-72
2022/12/27 07:06:25;;;;;;;0.10;0.10;;;;;;;;;;5050516;28;20032;-72
2022/12/27 07:08:51;;;;;;;0.40;0.40;;;;;;;;;;5033496;28;20033;-72
2022/12/27 07:11:17;;;;;;;0.10;0.10;;;;;;;;;;5051192;28;20511;-72
2022/12/27 07:13:44;;;;;;;0.10;0.10;;;;;;;;;;5050899;28;20395;-72
2022/12/27 07:16:11;;;;;;;0.10;0.10;;;;;;;;;;5033579;28;20057;-72
2022/12/27 07:18:37;;;;;;;0.10;0.10;;;;;;;;;;5032879;28;20074;-72
2022/12/27 07:21:07;;;;;;;0.10;0.10;;;;;;;;;;5050674;28;20036;-72
2022/12/27 07:23:32;;;;;;;0.52;0.52;;;;;;;;;;5050582;28;20029;-72
2022/12/27 07:26:02;;;;;;;0.17;0.17;;;;;;;;;;5050416;28;20120;-72
2022/12/27 07:28:28;;;;;;;0.32;0.32;;;;;;;;;;5032764;28;20464;-72
2022/12/27 07:30:53;;;;;;;0.38;0.38;;;;;;;;;;5050581;28;20044;-72
2022/12/27 07:33:19;;;;;;;0.10;0.10;;;;;;;;;;5050487;28;20028;-73
2022/12/27 07:35:45;;;;;;;0.22;0.22;;;;;;;;;;5050222;28;20487;-72
2022/12/27 07:38:10;;;;;;;0.10;0.10;;;;;;;;;;5051209;28;20040;-72
2022/12/27 07:40:36;;;;;;;0.10;0.10;;;;;;;;;;5050046;28;20392;-72
2022/12/27 07:43:01;;;;;;;0.10;0.10;;;;;;;;;;5050096;28;20021;-72
2022/12/27 07:45:27;;;;;;;0.13;0.13;;;;;;;;;;5050249;28;20025;-72
2022/12/27 07:47:52;;;;;;;0.10;0.10;;;;;;;;;;5050700;28;20368;-72
2022/12/27 07:50:18;;;;;;;0.10;0.10;;;;;;;;;;5050358;28;20059;-72
2022/12/27 07:52:43;;;;;;;0.20;0.20;;;;;;;;;;5049964;28;20033;-72
2022/12/27 07:55:09;;;;;;;0.20;0.20;;;;;;;;;;5050292;28;20040;-72
2022/12/27 07:57:34;;;;;;;0.10;0.10;;;;;;;;;;5050098;28;20041;-72
2022/12/27 08:00:00;;;;;;;0.20;0.20;;;;;;;;;;5049954;28;20029;-72
2022/12/27 08:02:26;;;;;;;0.17;0.17;;;;;;;;;;5049902;28;20119;-72
2022/12/27 08:04:51;;;;;;;0.43;0.43;;;;;;;;;;5049968;28;20463;-72
2022/12/27 08:07:18;;;;;;;6.55;2.95;;;;;;;;;;5050024;28;20488;-72
2022/12/27 08:09:44;;;;;;;0.15;0.15;;;;;;;;;;5049647;28;20025;-72
2022/12/27 08:12:10;;;;;;;0.20;0.20;;;;;;;;;;5050028;28;20090;-73
2022/12/27 08:14:36;;;;;;;0.10;0.10;;;;;;;;;;5049494;28;20119;-73
2022/12/27 08:17:03;;;;;;;0.20;0.20;;;;;;;;;;5035704;28;20113;-74
2022/12/27 08:19:29;;;;;;;0.10;0.10;;;;;;;;;;5027976;28;20040;-73
2022/12/27 08:21:54;;;;;;;0.20;0.20;;;;;;;;;;5018599;28;20041;-73
2022/12/27 08:24:20;;;;;;;0.30;0.30;;;;;;;;;;5031878;28;20478;-73
2022/12/27 08:26:45;;;;;;;0.10;0.10;;;;;;;;;;5039417;28;20035;-73
2022/12/27 08:29:11;;;;;;;0.10;0.10;;;;;;;;;;5037093;28;20025;-73
2022/12/27 08:31:36;;;;;;;0.25;0.25;;;;;;;;;;5034449;28;20032;-73
2022/12/27 08:34:02;;;;;;;1.65;1.55;;;;;;;;;;5036653;28;20111;-73
2022/12/27 08:36:27;;;;;;;0.10;0.10;;;;;;;;;;5029118;28;20469;-73
2022/12/27 08:38:53;;;;;;;0.20;0.20;;;;;;;;;;5029016;28;20404;-73
2022/12/27 08:41:19;;;;;;;0.47;0.47;;;;;;;;;;5028705;28;20045;-73
2022/12/27 08:43:45;;;;;;;0.20;0.20;;;;;;;;;;5029485;28;20018;-74
2022/12/27 08:46:10;;;;;;;0.10;0.10;;;;;;;;;;5029300;28;20033;-74
2022/12/27 08:48:36;;;;;;;0.13;0.13;;;;;;;;;;5029704;28;20025;-73
2022/12/27 08:51:06;;;;;;;1.45;1.45;;;;;;;;;;5028339;28;20032;-73
2022/12/27 08:53:31;;;;;;;0.10;0.10;;;;;;;;;;5027772;28;20055;-73
2022/12/27 08:55:57;;;;;;;0.20;0.20;;;;;;;;;;5028952;28;20041;-73
2022/12/27 08:58:23;;;;;;;0.32;0.32;;;;;;;;;;5029512;28;20022;-73
2022/12/27 09:00:49;;;;;;;0.30;0.30;;;;;;;;;;5028937;28;20030;-73
2022/12/27 09:03:18;;;;;;;1.70;1.65;;;;;;;;;;5028745;28;20026;-73
2022/12/27 09:05:45;;;;;;;0.20;0.20;;;;;;;;;;5028873;28;20037;-73
2022/12/27 09:08:10;;;;;;;0.20;0.20;;;;;;;;;;5011535;28;20014;-73
2022/12/27 09:10:37;;;;;;;0.20;0.20;;;;;;;;;;5028927;28;20393;-74
2022/12/27 09:13:03;;;;;;;0.15;0.15;;;;;;;;;;5028902;28;20029;-73
2022/12/27 09:15:28;;;;;;;0.40;0.40;;;;;;;;;;5028501;28;20023;-73
2022/12/27 09:17:53;;;;;;;0.40;0.40;;;;;;;;;;5027038;28;20049;-73
2022/12/27 09:20:19;;;;;;;0.20;0.20;;;;;;;;;;5021901;28;20033;-73
2022/12/27 09:22:44;;;;;;;0.30;0.30;;;;;;;;;;5011260;28;20053;-73
2022/12/27 09:25:10;;;;;;;0.40;0.40;;;;;;;;;;5008896;28;20230;-73
2022/12/27 09:27:36;;;;;;;0.30;0.30;;;;;;;;;;5023897;28;20029;-73
2022/12/27 09:30:02;;;;;;;0.20;0.20;;;;;;;;;;5017209;28;20038;-73
2022/12/27 09:32:27;;;;;;;0.77;0.77;;;;;;;;;;5038351;28;20032;-73
2022/12/27 09:34:53;;;;;;;0.30;0.30;;;;;;;;;;5050994;28;20029;-73
2022/12/27 09:37:18;;;;;;;0.20;0.20;;;;;;;;;;5015005;28;20376;-73
2022/12/27 09:39:44;;;;;;;0.20;0.20;;;;;;;;;;5026692;28;20087;-73
2022/12/27 09:42:15;;;;;;;0.20;0.20;;;;;;;;;;5045927;28;20037;-73
2022/12/27 09:44:53;;;;;;;0.20;0.20;;;;;;;;;;5027826;28;20531;-73
2022/12/27 09:47:33;;;;;;;0.30;0.30;;;;;;;;;;5032240;28;20127;-73
2022/12/27 09:50:03;;;;;;;0.20;0.20;;;;;;;;;;5031739;28;20872;-73
2022/12/27 09:52:33;;;;;;;1.00;0.75;;;;;;;;;;5014726;28;20562;-73
2022/12/27 09:55:09;;;;;;;0.40;0.40;;;;;;;;;;5032081;28;20040;-73
2022/12/27 09:57:37;;;;;;;0.30;0.30;;;;;;;;;;5031549;28;20488;-73
2022/12/27 10:00:05;;;;;;;0.40;0.40;;;;;;;;;;5022388;28;20049;-73
2022/12/27 10:02:32;;;;;;;0.20;0.20;;;;;;;;;;5019369;28;20436;-73
2022/12/27 10:04:58;;;;;;;0.30;0.30;;;;;;;;;;5032218;28;20036;-73
2022/12/27 10:07:55;;;;;;;1.15;1.05;;;;;;;;;;5031316;28;20033;-73
2022/12/27 10:10:41;;;;;;;0.20;0.20;;;;;;;;;;4998250;28;20081;-73
2022/12/27 10:13:25;;;;;;;0.50;0.50;;;;;;;;;;5014046;28;20029;-72
2022/12/27 10:16:16;;;;;;;1.60;1.50;;;;;;;;;;5031772;28;20033;-73
2022/12/27 10:19:00;;;;;;;0.20;0.20;;;;;;;;;;5031804;28;20121;-73
2022/12/27 10:21:26;;;;;;;0.20;0.20;;;;;;;;;;5030756;28;20037;-72
2022/12/27 10:23:57;;;;;;;0.30;0.30;;;;;;;;;;5031540;28;20033;-73
2022/12/27 10:26:23;;;;;;;0.20;0.20;;;;;;;;;;5031501;28;20377;-72
2022/12/27 10:28:51;;;;;;;0.30;0.30;;;;;;;;;;5031426;28;20026;-72
2022/12/27 10:31:17;;;;;;;0.10;0.10;;;;;;;;;;5031435;28;20563;-72
2022/12/27 10:33:44;;;;;;;0.68;0.68;;;;;;;;;;5031123;28;20090;-73
2022/12/27 10:36:11;;;;;;;0.20;0.20;;;;;;;;;;5031040;28;20110;-72
2022/12/27 10:38:37;;;;;;;0.20;0.20;;;;;;;;;;5031328;28;20064;-72
2022/12/27 10:41:02;;;;;;;0.25;0.25;;;;;;;;;;5014891;28;20433;-73
2022/12/27 10:43:32;;;;;;;0.20;0.20;;;;;;;;;;5007869;28;20062;-72
2022/12/27 10:46:09;;;;;;;0.30;0.30;;;;;;;;;;4993876;28;20026;-73
2022/12/27 10:48:35;;;;;;;0.17;0.17;;;;;;;;;;5024891;28;20029;-73
2022/12/27 10:51:05;;;;;;;0.20;0.20;;;;;;;;;;5030902;28;20069;-73
2022/12/27 10:53:45;;;;;;;0.10;0.10;;;;;;;;;;5023995;28;20076;-72
2022/12/27 10:56:11;;;;;;;0.20;0.20;;;;;;;;;;5011517;28;20053;-72
2022/12/27 10:58:39;;;;;;;0.20;0.20;;;;;;;;;;5010510;28;20038;-73
2022/12/27 11:01:05;;;;;;;0.20;0.20;;;;;;;;;;5017342;28;20030;-72
2022/12/27 11:03:31;;;;;;;0.20;0.20;;;;;;;;;;5030916;28;20048;-72
2022/12/27 11:06:15;;;;;;;0.20;0.20;;;;;;;;;;5031294;28;20037;-73
2022/12/27 11:08:41;;;;;;;0.35;0.30;;;;;;;;;;5027830;28;20476;-73
2022/12/27 11:11:11;;;;;;;0.20;0.20;;;;;;;;;;5030557;28;20121;-72
2022/12/27 11:13:36;;;;;;;0.40;0.40;;;;;;;;;;5010170;28;20049;-72
2022/12/27 11:16:02;;;;;;;0.30;0.30;;;;;;;;;;5001377;28;20068;-72
2022/12/27 11:18:28;;;;;;;0.20;0.20;;;;;;;;;;5017341;28;20030;-73
2022/12/27 11:20:54;;;;;;;0.50;0.50;;;;;;;;;;5022700;28;20044;-73
2022/12/27 11:23:21;;;;;;;0.20;0.20;;;;;;;;;;5015296;28;20025;-72
2022/12/27 11:25:50;;;;;;;2.63;2.28;;;;;;;;;;5028840;28;20036;-72
2022/12/27 11:28:15;;;;;;;0.20;0.20;;;;;;;;;;5009752;28;20026;-72
2022/12/27 11:30:50;;;;;;;0.20;0.20;;;;;;;;;;5011809;28;20044;-73
2022/12/27 11:33:15;;;;;;;0.20;0.20;;;;;;;;;;5010109;28;20384;-73
2022/12/27 11:35:46;;;;;;;0.20;0.20;;;;;;;;;;5018545;28;20539;-72
2022/12/27 11:38:24;;;;;;;0.20;0.20;;;;;;;;;;5013177;28;20497;-72
2022/12/27 11:40:59;;;;;;;0.20;0.20;;;;;;;;;;5027948;28;20507;-72
2022/12/27 11:43:26;;;;;;;0.20;0.20;;;;;;;;;;5026142;28;20959;-72
2022/12/27 11:45:53;;;;;;;0.20;0.20;;;;;;;;;;5012770;28;20117;-72
2022/12/27 11:48:22;;;;;;;0.20;0.20;;;;;;;;;;5030066;28;20044;-72
2022/12/27 11:50:56;;;;;;;0.22;0.22;;;;;;;;;;5029945;28;20041;-73
2022/12/27 11:53:34;;;;;;;0.20;0.20;;;;;;;;;;5029461;28;20092;-72
2022/12/27 11:56:02;;;;;;;0.52;0.50;;;;;;;;;;5014460;28;20060;-73
2022/12/27 11:58:37;;;;;;;0.20;0.20;;;;;;;;;;5009566;28;20030;-72
2022/12/27 12:01:21;;;;;;;0.20;0.20;;;;;;;;;;4991903;28;20508;-72
2022/12/27 12:04:06;;;;;;;0.10;0.10;;;;;;;;;;4976287;28;20092;-72
2022/12/27 12:07:03;;;;;;;0.20;0.20;;;;;;;;;;5010068;28;20038;-72
2022/12/27 12:09:40;;;;;;;0.20;0.20;;;;;;;;;;4975472;28;20038;-72
2022/12/27 12:12:17;;;;;;;0.43;0.43;;;;;;;;;;5009839;28;20056;-72
2022/12/27 12:14:56;;;;;;;0.10;0.10;;;;;;;;;;5009485;28;20477;-73
2022/12/27 12:17:49;;;;;;;0.20;0.20;;;;;;;;;;5005470;28;20511;-72
2022/12/27 12:20:14;;;;;;;0.30;0.30;;;;;;;;;;5009030;28;20492;-72
2022/12/27 12:22:41;;;;;;;0.40;0.40;;;;;;;;;;4992066;28;20060;-72
2022/12/27 12:25:22;;;;;;;1.30;0.90;;;;;;;;;;5009852;28;20248;-72
2022/12/27 12:27:59;;;;;;;0.40;0.40;;;;;;;;;;4991567;28;20034;-72
2022/12/27 12:30:32;;;;;;;0.13;0.13;;;;;;;;;;5008068;28;20369;-72
2022/12/27 12:33:16;;;;;;;0.68;0.68;;;;;;;;;;5007395;28;20062;-73
2022/12/27 12:36:00;;;;;;;0.17;0.17;;;;;;;;;;5008465;28;20323;-73
2022/12/27 12:39:07;;;;;;;0.10;0.10;;;;;;;;;;5024544;28;20472;-73
2022/12/27 12:41:35;;;;;;;0.30;0.30;;;;;;;;;;4966737;28;20031;-73
2022/12/27 12:44:02;;;;;;;0.20;0.20;;;;;;;;;;4967856;28;20073;-72
2022/12/27 12:46:36;;;;;;;0.20;0.20;;;;;;;;;;4998470;28;20033;-72
2022/12/27 12:49:01;;;;;;;0.52;0.40;;;;;;;;;;5029223;28;20040;-73
2022/12/27 12:51:50;;;;;;;0.20;0.20;;;;;;;;;;4997960;28;20137;-72
2022/12/27 12:54:21;;;;;;;0.75;0.52;;;;;;;;;;4999140;28;20057;-72
2022/12/27 12:57:06;;;;;;;0.30;0.30;;;;;;;;;;5000020;28;20057;-73
2022/12/27 12:59:31;;;;;;;7.22;2.15;;;;;;;;;;5029127;28;20129;-73
2022/12/27 13:01:59;;;;;;;0.30;0.30;;;;;;;;;;5008429;28;20497;-72
2022/12/27 13:04:41;;;;;;;0.20;0.20;;;;;;;;;;5008855;28;20026;-73
2022/12/27 13:07:22;;;;;;;0.30;0.30;;;;;;;;;;5013187;28;20478;-72
2022/12/27 13:09:50;;;;;;;0.20;0.20;;;;;;;;;;5013155;28;20033;-73
2022/12/27 13:12:22;;;;;;;0.17;0.17;;;;;;;;;;5013481;28;20420;-73
2022/12/27 13:14:54;;;;;;;0.85;0.82;;;;;;;;;;5007317;28;20161;-73
2022/12/27 13:17:33;;;;;;;0.20;0.20;;;;;;;;;;5010452;28;20058;-72
2022/12/27 13:20:11;;;;;;;0.20;0.20;;;;;;;;;;4994241;28;20046;-73
2022/12/27 13:22:37;;;;;;;0.20;0.20;;;;;;;;;;5011979;28;20041;-72
2022/12/27 13:25:02;;;;;;;0.20;0.20;;;;;;;;;;5011531;28;20380;-72
2022/12/27 13:27:34;;;;;;;0.20;0.20;;;;;;;;;;5012290;28;20119;-73
2022/12/27 13:30:08;;;;;;;0.40;0.40;;;;;;;;;;5012734;28;20022;-72
2022/12/27 13:32:42;;;;;;;0.20;0.20;;;;;;;;;;5012691;28;20026;-73
2022/12/27 13:35:20;;;;;;;0.28;0.28;;;;;;;;;;5012838;28;20026;-73
2022/12/27 13:37:51;;;;;;;0.20;0.20;;;;;;;;;;5012919;28;20318;-71
2022/12/27 13:40:17;;;;;;;0.10;0.10;;;;;;;;;;4995339;28;20030;-71
2022/12/27 13:42:43;;;;;;;0.20;0.20;;;;;;;;;;5012769;28;20049;-71
2022/12/27 13:45:21;;;;;;;0.20;0.20;;;;;;;;;;4994792;28;20025;-72
2022/12/27 13:48:07;;;;;;;0.20;0.20;;;;;;;;;;5013026;28;20101;-72
2022/12/27 13:50:42;;;;;;;0.28;0.28;;;;;;;;;;5011748;28;20065;-72
2022/12/27 13:53:26;;;;;;;0.25;0.25;;;;;;;;;;5012512;28;20030;-72
2022/12/27 13:55:54;;;;;;;0.22;0.22;;;;;;;;;;5013877;28;20038;-73
2022/12/27 13:58:20;;;;;;;0.20;0.20;;;;;;;;;;5043306;28;20075;-72
2022/12/27 14:00:49;;;;;;;0.28;0.28;;;;;;;;;;5051962;28;20037;-71
2022/12/27 14:03:32;;;;;;;0.20;0.20;;;;;;;;;;5037781;28;20036;-71
2022/12/27 14:06:10;;;;;;;0.20;0.20;;;;;;;;;;5031657;28;20033;-71
2022/12/27 14:08:55;;;;;;;3.40;0.50;;;;;;;;;;5048009;28;20488;-71
2022/12/27 14:11:29;;;;;;;0.28;0.28;;;;;;;;;;5052017;28;20144;-71
2022/12/27 14:13:55;;;;;;;0.28;0.28;;;;;;;;;;5031127;28;20033;-71
2022/12/27 14:16:20;;;;;;;0.20;0.20;;;;;;;;;;5031279;28;20038;-71
2022/12/27 14:18:49;;;;;;;0.30;0.30;;;;;;;;;;5031250;28;20100;-72
2022/12/27 14:21:21;;;;;;;1.00;1.00;;;;;;;;;;5031286;28;20036;-72
2022/12/27 14:23:54;;;;;;;2.28;2.17;;;;;;;;;;5026709;28;20025;-72
2022/12/27 14:26:39;;;;;;;1.20;1.20;;;;;;;;;;5029262;28;20030;-72
2022/12/27 14:29:23;;;;;;;0.45;0.45;;;;;;;;;;5031829;28;20026;-71
2022/12/27 14:31:58;;;;;;;0.15;0.15;;;;;;;;;;5031228;28;20124;-71
2022/12/27 14:34:36;;;;;;;0.28;0.28;;;;;;;;;;5031587;28;20159;-72
2022/12/27 14:37:13;;;;;;;0.20;0.20;;;;;;;;;;5011394;28;20479;-72
2022/12/27 14:39:57;;;;;;;0.20;0.20;;;;;;;;;;5024796;28;20290;-72
2022/12/27 14:42:23;;;;;;;0.30;0.30;;;;;;;;;;5030138;28;20068;-71
2022/12/27 14:44:48;;;;;;;0.20;0.20;;;;;;;;;;5028456;28;20465;-71
2022/12/27 14:47:39;;;;;;;0.20;0.20;;;;;;;;;;5029579;28;20029;-71
2022/12/27 14:50:14;;;;;;;0.30;0.30;;;;;;;;;;5013495;28;20429;-71
2022/12/27 14:52:45;;;;;;;0.20;0.20;;;;;;;;;;5024280;28;20080;-71
2022/12/27 14:55:11;;;;;;;0.20;0.20;;;;;;;;;;5013074;28;20496;-71
2022/12/27 14:57:46;;;;;;;0.20;0.20;;;;;;;;;;5014912;28;20045;-71
2022/12/27 15:00:11;;;;;;;0.20;0.20;;;;;;;;;;5024438;28;20049;-71
2022/12/27 15:02:52;;;;;;;0.20;0.20;;;;;;;;;;5031255;28;20555;-72
2022/12/27 15:05:20;;;;;;;0.22;0.22;;;;;;;;;;5022738;28;20029;-71
2022/12/27 15:07:59;;;;;;;0.30;0.30;;;;;;;;;;5007915;28;20034;-71
2022/12/27 15:10:25;;;;;;;;;;;;;;;;;;5002714;28;20046;-71
2022/12/27 15:13:04;;;;;;;0.30;0.30;;;;;;;;;;5005228;28;19913;-72
2022/12/27 15:15:45;;;;;;;0.32;0.32;;;;;;;;;;5011404;28;20512;-71
2022/12/27 15:18:18;;;;;;;0.20;0.20;;;;;;;;;;4987923;28;20031;-71
2022/12/27 15:20:44;;;;;;;0.30;0.30;;;;;;;;;;4988613;28;20541;-71
2022/12/27 15:23:27;;;;;;;0.95;0.68;;;;;;;;;;4989239;28;20129;-71
2022/12/27 15:26:11;;;;;;;0.30;0.30;;;;;;;;;;5011379;28;20095;-71
2022/12/27 15:28:46;;;;;;;0.45;0.45;;;;;;;;;;5026564;28;20033;-71
2022/12/27 15:31:19;;;;;;;0.50;0.50;;;;;;;;;;5026887;28;20037;-71
2022/12/27 15:33:45;;;;;;;0.20;0.20;;;;;;;;;;4986741;28;20363;-71
2022/12/27 15:36:12;;;;;;;1.88;1.25;;;;;;;;;;4987247;28;20033;-73
2022/12/27 15:38:48;;;;;;;0.30;0.30;;;;;;;;;;4987967;28;20093;-71
2022/12/27 15:41:19;;;;;;;3.55;1.58;;;;;;;;;;4987117;28;20093;-71
2022/12/27 15:44:00;;;;;;;0.20;0.20;;;;;;;;;;4989207;28;20031;-71
2022/12/27 15:46:38;;;;;;;1.33;1.33;;;;;;;;;;5009628;28;20041;-71
2022/12/27 15:49:22;;;;;;;0.20;0.20;;;;;;;;;;5002213;28;20029;-71
2022/12/27 15:51:56;;;;;;;0.20;0.20;;;;;;;;;;5002352;28;20044;-71
2022/12/27 15:54:41;;;;;;;0.20;0.20;;;;;;;;;;4999073;28;20053;-71
2022/12/27 15:57:06;;;;;;;6.13;1.63;;;;;;;;;;5001563;28;20042;-71
2022/12/27 15:59:44;;;;;;;0.98;0.98;;;;;;;;;;4982945;28;20037;-71
2022/12/27 16:02:15;;;;;;;0.40;0.40;;;;;;;;;;5001251;28;20057;-72
2022/12/27 16:04:44;;;;;;;0.40;0.40;;;;;;;;;;5008031;28;20034;-72
2022/12/27 16:07:29;;;;;;;0.20;0.20;;;;;;;;;;4998247;28;20030;-71
2022/12/27 16:09:55;;;;;;;0.15;0.15;;;;;;;;;;5001161;28;20030;-72
2022/12/27 16:12:34;;;;;;;0.20;0.20;;;;;;;;;;5006344;28;20033;-72
2022/12/27 16:15:20;;;;;;;0.20;0.20;;;;;;;;;;5007901;28;20390;-72
2022/12/27 16:18:04;;;;;;;0.30;0.30;;;;;;;;;;4997075;28;20491;-72
2022/12/27 16:20:30;;;;;;;0.20;0.20;;;;;;;;;;5003234;28;20372;-72
2022/12/27 16:22:57;;;;;;;0.40;0.40;;;;;;;;;;4989260;28;20042;-72
2022/12/27 16:25:32;;;;;;;0.20;0.20;;;;;;;;;;4989649;28;20054;-72
2022/12/27 16:28:01;;;;;;;0.20;0.20;;;;;;;;;;5015362;28;20121;-72
2022/12/27 16:30:33;;;;;;;0.40;0.40;;;;;;;;;;5027438;28;20029;-72
2022/12/27 16:32:59;;;;;;;0.10;0.10;;;;;;;;;;5028261;28;20026;-72
2022/12/27 16:35:25;;;;;;;0.28;0.28;;;;;;;;;;5012421;28;20703;-72